Time;durP1;ratioP1;P1;durP2;ratioP2;P2;SDS_P1;SDS_P2;PMS_P1;PMS_P2;Temp;Humidity;BMP_temperature;BMP_pressure;BME280_temperature;BME280_humidity;BME280_pressure;Samples;Min_cycle;Max_cycle;Signal;HPM_P1;HPM_P2
2022/10/04 00:02:10;;;;;;;;;;;;;;;;;;5056527;28;19934;-58
2022/10/04 00:04:37;;;;;;;;;;;;;;;;;;5057525;28;20407;-59
2022/10/04 00:07:03;;;;;;;;;;;;;;;;;;5060078;28;20322;-59
2022/10/04 00:09:28;;;;;;;;;;;;;;;;;;5056256;28;19908;-59
2022/10/04 00:11:54;;;;;;;;;;;;;;;;;;5058844;28;19919;-58
2022/10/04 00:14:20;;;;;;;;;;;;;;;;;;5054384;28;19913;-58
2022/10/04 00:16:46;;;;;;;;;;;;;;;;;;5063816;28;19912;-58
2022/10/04 00:19:12;;;;;;;;;;;;;;;;;;5055688;28;19909;-58
2022/10/04 00:21:38;;;;;;;;;;;;;;;;;;5060356;28;19909;-59
2022/10/04 00:24:04;;;;;;;;;;;;;;;;;;5057943;28;20300;-58
2022/10/04 00:26:30;;;;;;;;;;;;;;;;;;5055560;28;19996;-58
2022/10/04 00:28:56;;;;;;;;;;;;;;;;;;5055447;28;20372;-58
2022/10/04 00:31:21;;;;;;;;;;;;;;;;;;5049748;28;19913;-59
2022/10/04 00:33:47;;;;;;;;;;;;;;;;;;5056541;28;19925;-59
2022/10/04 00:36:13;;;;;;;;;;;;;;;;;;5051848;28;19956;-59
2022/10/04 00:38:39;;;;;;;;;;;;;;;;;;5056139;28;19917;-58
2022/10/04 00:41:05;;;;;;;;;;;;;;;;;;5057349;28;19915;-59
2022/10/04 00:43:31;;;;;;;;;;;;;;;;;;5055913;28;20368;-58
2022/10/04 00:45:57;;;;;;;;;;;;;;;;;;5056581;28;19909;-59
2022/10/04 00:48:23;;;;;;;;;;;;;;;;;;5059718;28;20261;-59
2022/10/04 00:50:50;;;;;;;;;;;;;;;;;;5061114;28;19912;-58
2022/10/04 00:53:16;;;;;;;;;;;;;;;;;;5061056;28;19921;-58
2022/10/04 00:55:42;;;;;;;;;;;;;;;;;;5057110;28;19932;-58
2022/10/04 00:58:08;;;;;;;;;;;;;;;;;;5058419;28;19972;-58
2022/10/04 01:00:34;;;;;;;;;;;;;;;;;;5062283;28;19917;-59
2022/10/04 01:03:00;;;;;;;;;;;;;;;;;;5061079;28;19924;-58
2022/10/04 01:05:26;;;;;;;;;;;;;;;;;;5056351;28;19920;-58
2022/10/04 01:07:52;;;;;;;;;;;;;;;;;;5062293;28;19913;-59
2022/10/04 01:10:18;;;;;;;;;;;;;;;;;;5053181;28;19908;-58
2022/10/04 01:12:44;;;;;;;;;;;;;;;;;;5052053;28;19959;-58
2022/10/04 01:15:10;;;;;;;;;;;;;;;;;;5053931;28;20392;-58
2022/10/04 01:17:36;;;;;;;;;;;;;;;;;;5062592;28;19940;-58
2022/10/04 01:20:01;;;;;;;;;;;;;;;;;;5063856;28;19952;-58
2022/10/04 01:22:27;;;;;;;;;;;;;;;;;;5054080;28;20428;-58
2022/10/04 01:24:53;;;;;;;;;;;;;;;;;;5051827;28;19909;-58
2022/10/04 01:27:19;;;;;;;;;;;;;;;;;;5056523;28;19924;-59
2022/10/04 01:29:45;;;;;;;;;;;;;;;;;;5055736;28;20360;-59
2022/10/04 01:32:11;;;;;;;;;;;;;;;;;;5063633;28;19957;-59
2022/10/04 01:34:37;;;;;;;;;;;;;;;;;;5052559;28;20411;-58
2022/10/04 01:37:03;;;;;;;;;;;;;;;;;;5058184;28;19952;-58
2022/10/04 01:39:29;;;;;;;;;;;;;;;;;;5061150;28;19948;-59
2022/10/04 01:41:55;;;;;;;;;;;;;;;;;;5055317;28;19916;-59
2022/10/04 01:44:22;;;;;;;;;;;;;;;;;;5055852;28;19919;-59
2022/10/04 01:46:47;;;;;;;;;;;;;;;;;;5057341;28;19913;-59
2022/10/04 01:49:14;;;;;;;;;;;;;;;;;;5056206;28;19919;-59
2022/10/04 01:51:40;;;;;;;;;;;;;;;;;;5059024;28;19924;-59
2022/10/04 01:54:05;;;;;;;;;;;;;;;;;;5058438;28;20328;-58
2022/10/04 01:56:31;;;;;;;;;;;;;;;;;;5056402;28;19913;-59
2022/10/04 01:58:57;;;;;;;;;;;;;;;;;;5054134;28;20367;-59
2022/10/04 02:01:25;;;;;;;;;;;;;;;;;;5056379;28;19935;-58
2022/10/04 02:03:51;;;;;;;;;;;;;;;;;;5055886;28;19958;-58
2022/10/04 02:06:17;;;;;;;;;;;;;;;;;;5057257;28;20368;-59
2022/10/04 02:08:43;;;;;;;;;;;;;;;;;;5055654;28;20398;-58
2022/10/04 02:11:09;;;;;;;;;;;;;;;;;;5053741;28;20364;-58
2022/10/04 02:13:34;;;;;;;;;;;;;;;;;;5055997;28;19917;-58
2022/10/04 02:16:01;;;;;;;;;;;;;;;;;;5061930;28;19936;-58
2022/10/04 02:18:27;;;;;;;;;;;;;;;;;;5060883;28;19909;-58
2022/10/04 02:20:54;;;;;;;;;;;;;;;;;;5059417;28;20390;-59
2022/10/04 02:23:19;;;;;;;;;;;;;;;;;;5060464;28;19917;-59
2022/10/04 02:25:45;;;;;;;;;;;;;;;;;;5057299;28;19933;-61
2022/10/04 02:28:12;;;;;;;;;;;;;;;;;;5056645;28;20296;-59
2022/10/04 02:30:38;;;;;;;;;;;;;;;;;;5059610;28;19948;-58
2022/10/04 02:33:04;;;;;;;;;;;;;;;;;;5056680;28;19975;-58
2022/10/04 02:35:30;;;;;;;;;;;;;;;;;;5057781;28;19916;-58
2022/10/04 02:37:56;;;;;;;;;;;;;;;;;;5056506;28;19908;-58
2022/10/04 02:40:22;;;;;;;;;;;;;;;;;;5060350;28;19916;-58
2022/10/04 02:42:48;;;;;;;;;;;;;;;;;;5064740;28;19913;-59
2022/10/04 02:45:14;;;;;;;;;;;;;;;;;;5055648;28;19916;-58
2022/10/04 02:47:39;;;;;;;;;;;;;;;;;;5057327;28;19936;-59
2022/10/04 02:50:05;;;;;;;;;;;;;;;;;;5062417;28;19913;-59
2022/10/04 02:52:31;;;;;;;;;;;;;;;;;;5055604;28;19986;-58
2022/10/04 02:54:58;;;;;;;;;;;;;;;;;;5063331;28;20316;-58
2022/10/04 02:57:24;;;;;;;;;;;;;;;;;;5053110;28;19908;-59
2022/10/04 02:59:50;;;;;;;;;;;;;;;;;;5057288;28;19913;-59
2022/10/04 03:02:16;;;;;;;;;;;;;;;;;;5054281;28;20000;-58
2022/10/04 03:04:42;;;;;;;;;;;;;;;;;;5057950;28;19913;-59
2022/10/04 03:07:08;;;;;;;;;;;;;;;;;;5055665;28;19913;-58
2022/10/04 03:09:34;;;;;;;;;;;;;;;;;;5052949;28;19963;-59
2022/10/04 03:12:00;;;;;;;;;;;;;;;;;;5059023;28;19919;-58
2022/10/04 03:14:25;;;;;;;;;;;;;;;;;;5058228;28;20141;-59
2022/10/04 03:16:52;;;;;;;;;;;;;;;;;;5055545;28;19947;-59
2022/10/04 03:19:18;;;;;;;;;;;;;;;;;;5055392;28;20334;-59
2022/10/04 03:21:44;;;;;;;;;;;;;;;;;;5055825;28;19913;-58
2022/10/04 03:24:10;;;;;;;;;;;;;;;;;;5060899;28;19960;-58
2022/10/04 03:26:36;;;;;;;;;;;;;;;;;;5052611;28;19962;-59
2022/10/04 03:29:02;;;;;;;;;;;;;;;;;;5060150;28;19909;-58
2022/10/04 03:31:27;;;;;;;;;;;;;;;;;;5057241;28;19909;-59
2022/10/04 03:33:53;;;;;;;;;;;;;;;;;;5050965;28;19944;-59
2022/10/04 03:36:19;;;;;;;;;;;;;;;;;;5057316;28;20004;-58
2022/10/04 03:38:45;;;;;;;;;;;;;;;;;;5055286;28;19909;-58
2022/10/04 03:41:11;;;;;;;;;;;;;;;;;;5060028;28;20261;-59
2022/10/04 03:43:37;;;;;;;;;;;;;;;;;;5057143;28;19916;-59
2022/10/04 03:46:04;;;;;;;;;;;;;;;;;;5058841;28;19908;-59
2022/10/04 03:48:30;;;;;;;;;;;;;;;;;;5059327;28;19913;-59
2022/10/04 03:50:55;;;;;;;;;;;;;;;;;;5065900;28;20386;-59
2022/10/04 03:53:21;;;;;;;;;;;;;;;;;;5058257;28;20395;-58
2022/10/04 03:55:47;;;;;;;;;;;;;;;;;;5058584;28;19909;-59
2022/10/04 03:58:13;;;;;;;;;;;;;;;;;;5056934;28;19923;-59
2022/10/04 04:00:39;;;;;;;;;;;;;;;;;;5059222;28;19919;-58
2022/10/04 04:03:05;;;;;;;;;;;;;;;;;;5058164;28;20323;-58
2022/10/04 04:05:31;;;;;;;;;;;;;;;;;;5061021;28;19989;-58
2022/10/04 04:07:57;;;;;;;;;;;;;;;;;;5061075;28;19912;-59
2022/10/04 04:10:23;;;;;;;;;;;;;;;;;;5056564;28;20245;-60
2022/10/04 04:12:49;;;;;;;;;;;;;;;;;;5062009;28;19909;-59
2022/10/04 04:15:14;;;;;;;;;;;;;;;;;;5056529;28;19909;-60
2022/10/04 04:17:40;;;;;;;;;;;;;;;;;;5058982;28;20342;-62
2022/10/04 04:20:07;;;;;;;;;;;;;;;;;;5063699;28;19908;-62
2022/10/04 04:22:33;;;;;;;;;;;;;;;;;;5059895;28;19909;-62
2022/10/04 04:24:58;;;;;;;;;;;;;;;;;;5060901;28;19908;-61
2022/10/04 04:27:24;;;;;;;;;;;;;;;;;;5058903;28;19940;-59
2022/10/04 04:29:50;;;;;;;;;;;;;;;;;;5066749;28;19920;-60
2022/10/04 04:32:16;;;;;;;;;;;;;;;;;;5072408;28;19920;-59
2022/10/04 04:34:42;;;;;;;;;;;;;;;;;;5062466;28;20011;-59
2022/10/04 04:37:08;;;;;;;;;;;;;;;;;;5054867;28;20333;-59
2022/10/04 04:39:38;;;;;;;;;;;;;;;;;;5053825;28;19916;-59
2022/10/04 04:42:04;;;;;;;;;;;;;;;;;;5057928;28;19917;-59
2022/10/04 04:44:30;;;;;;;;;;;;;;;;;;5058646;28;20011;-59
2022/10/04 04:46:59;;;;;;;;;;;;;;;;;;5056930;28;20075;-59
2022/10/04 04:49:24;;;;;;;;;;;;;;;;;;5057370;28;19909;-59
2022/10/04 04:51:50;;;;;;;;;;;;;;;;;;5057998;28;20417;-59
2022/10/04 04:54:16;;;;;;;;;;;;;;;;;;5061716;28;19916;-59
2022/10/04 04:56:42;;;;;;;;;;;;;;;;;;5065123;28;19912;-59
2022/10/04 04:59:08;;;;;;;;;;;;;;;;;;5057942;28;19916;-59
2022/10/04 05:01:34;;;;;;;;;;;;;;;;;;5056751;28;20024;-59
2022/10/04 05:04:01;;;;;;;;;;;;;;;;;;5054725;28;20367;-59
2022/10/04 05:06:26;;;;;;;;;;;;;;;;;;5059898;28;20011;-59
2022/10/04 05:08:52;;;;;;;;;;;;;;;;;;5057883;28;20003;-60
2022/10/04 05:11:18;;;;;;;;;;;;;;;;;;5063540;28;19912;-59
2022/10/04 05:13:44;;;;;;;;;;;;;;;;;;5062220;28;19916;-59
2022/10/04 05:16:10;;;;;;;;;;;;;;;;;;5062044;28;19920;-58
2022/10/04 05:18:36;;;;;;;;;;;;;;;;;;5054682;28;19916;-59
2022/10/04 05:21:02;;;;;;;;;;;;;;;;;;5060469;28;20391;-59
2022/10/04 05:23:28;;;;;;;;;;;;;;;;;;5058264;28;19909;-57
2022/10/04 05:25:53;;;;;;;;;;;;;;;;;;5057153;28;19919;-58
2022/10/04 05:28:19;;;;;;;;;;;;;;;;;;5055386;28;19913;-59
2022/10/04 05:30:46;;;;;;;;;;;;;;;;;;5056530;28;19917;-59
2022/10/04 05:33:13;;;;;;;;;;;;;;;;;;5051876;28;20375;-59
2022/10/04 05:35:39;;;;;;;;;;;;;;;;;;5055908;28;19912;-59
2022/10/04 05:38:05;;;;;;;;;;;;;;;;;;5056758;28;19995;-59
2022/10/04 05:40:31;;;;;;;;;;;;;;;;;;5061566;28;19919;-59
2022/10/04 05:42:58;;;;;;;;;;;;;;;;;;5052542;28;19952;-58
2022/10/04 05:45:24;;;;;;;;;;;;;;;;;;5057326;28;19939;-58
2022/10/04 05:47:50;;;;;;;;;;;;;;;;;;5056721;28;20000;-57
2022/10/04 05:50:16;;;;;;;;;;;;;;;;;;5062753;28;19923;-58
2022/10/04 05:52:41;;;;;;;;;;;;;;;;;;5068542;28;19908;-58
2022/10/04 05:55:07;;;;;;;;;;;;;;;;;;5063603;28;20331;-59
2022/10/04 05:57:33;;;;;;;;;;;;;;;;;;5058623;28;20364;-59
2022/10/04 05:59:59;;;;;;;;;;;;;;;;;;5058679;28;19913;-58
2022/10/04 06:02:25;;;;;;;;;;;;;;;;;;5061564;28;19966;-58
2022/10/04 06:04:51;;;;;;;;;;;;;;;;;;5063719;28;19916;-58
2022/10/04 06:07:17;;;;;;;;;;;;;;;;;;5058439;28;19927;-58
2022/10/04 06:09:43;;;;;;;;;;;;;;;;;;5055947;28;20284;-59
2022/10/04 06:12:09;;;;;;;;;;;;;;;;;;5057543;28;20368;-59
2022/10/04 06:14:35;;;;;;;;;;;;;;;;;;5057956;28;19913;-59
2022/10/04 06:17:01;;;;;;;;;;;;;;;;;;5058714;28;19931;-59
2022/10/04 06:19:27;;;;;;;;;;;;;;;;;;5057918;28;20391;-59
2022/10/04 06:21:53;;;;;;;;;;;;;;;;;;5058279;28;19913;-58
2022/10/04 06:24:19;;;;;;;;;;;;;;;;;;5060448;28;20399;-59
2022/10/04 06:26:46;;;;;;;;;;;;;;;;;;5065956;28;19923;-59
2022/10/04 06:29:12;;;;;;;;;;;;;;;;;;5061528;28;19913;-59
2022/10/04 06:31:38;;;;;;;;;;;;;;;;;;5059030;28;19916;-59
2022/10/04 06:34:04;;;;;;;;;;;;;;;;;;5061498;28;19925;-59
2022/10/04 06:36:30;;;;;;;;;;;;;;;;;;5061567;28;19916;-59
2022/10/04 06:38:57;;;;;;;;;;;;;;;;;;5057898;28;19908;-58
2022/10/04 06:41:23;;;;;;;;;;;;;;;;;;5059693;28;20350;-59
2022/10/04 06:43:49;;;;;;;;;;;;;;;;;;5058608;28;19955;-59
2022/10/04 06:46:15;;;;;;;;;;;;;;;;;;5061736;28;19909;-59
2022/10/04 06:48:41;;;;;;;;;;;;;;;;;;5059740;28;20344;-59
2022/10/04 06:51:07;;;;;;;;;;;;;;;;;;5067142;28;19962;-59
2022/10/04 06:53:33;;;;;;;;;;;;;;;;;;5060579;28;19977;-59
2022/10/04 06:56:04;;;;;;;;;;;;;;;;;;5063162;28;19908;-59
2022/10/04 06:58:31;;;;;;;;;;;;;;;;;;5059190;28;19912;-59
2022/10/04 07:00:57;;;;;;;;;;;;;;;;;;5056086;28;20030;-59
2022/10/04 07:03:23;;;;;;;;;;;;;;;;;;5061408;28;19998;-59
2022/10/04 07:05:49;;;;;;;;;;;;;;;;;;5058624;28;20242;-59
2022/10/04 07:08:29;;;;;;;;;;;;;;;;;;5061929;28;19908;-59
2022/10/04 07:10:55;;;;;;;;;;;;;;;;;;5060383;28;20043;-59
2022/10/04 07:13:21;;;;;;;;;;;;;;;;;;5060904;28;20350;-59
2022/10/04 07:15:47;;;;;;;;;;;;;;;;;;5061995;28;20383;-59
2022/10/04 07:18:13;;;;;;;;;;;;;;;;;;5062857;28;19936;-59
2022/10/04 07:20:39;;;;;;;;;;;;;;;;;;5059361;28;19912;-59
2022/10/04 07:23:05;;;;;;;;;;;;;;;;;;5056842;28;20000;-60
2022/10/04 07:25:31;;;;;;;;;;;;;;;;;;5062415;28;19916;-60
2022/10/04 07:30:41;;;;;;;;;;;;;;;;;;5057997;28;20486;-59
2022/10/04 07:33:07;;;;;;;;;;;;;;;;;;5056026;28;19929;-59
2022/10/04 07:35:34;;;;;;;;;;;;;;;;;;5059812;28;20329;-58
2022/10/04 07:38:00;;;;;;;;;;;;;;;;;;5056815;28;19917;-59
2022/10/04 07:40:28;;;;;;;;;;;;;;;;;;5059891;28;19916;-59
2022/10/04 07:42:54;;;;;;;;;;;;;;;;;;5056537;28;19955;-59
2022/10/04 07:45:19;;;;;;;;;;;;;;;;;;5060631;28;19944;-60
2022/10/04 07:47:46;;;;;;;;;;;;;;;;;;5059283;28;19913;-59
2022/10/04 07:50:11;;;;;;;;;;;;;;;;;;5057304;28;20411;-59
2022/10/04 07:52:37;;;;;;;;;;;;;;;;;;5058411;28;19909;-59
2022/10/04 07:55:04;;;;;;;;;;;;;;;;;;5064653;28;19935;-59
2022/10/04 07:57:30;;;;;;;;;;;;;;;;;;5060308;28;19909;-59
2022/10/04 07:59:56;;;;;;;;;;;;;;;;;;5061633;28;19923;-59
2022/10/04 08:02:22;;;;;;;;;;;;;;;;;;5059930;28;20376;-59
2022/10/04 08:04:48;;;;;;;;;;;;;;;;;;5064728;28;19912;-59
2022/10/04 08:07:13;;;;;;;;;;;;;;;;;;5054870;28;19935;-59
2022/10/04 08:09:39;;;;;;;;;;;;;;;;;;5058780;28;20431;-59
2022/10/04 08:12:05;;;;;;;;;;;;;;;;;;5061409;28;19909;-59
2022/10/04 08:14:31;;;;;;;;;;;;;;;;;;5055756;28;20359;-59
2022/10/04 08:16:57;;;;;;;;;;;;;;;;;;5061457;28;19912;-58
2022/10/04 08:19:23;;;;;;;;;;;;;;;;;;5059980;28;19909;-59
2022/10/04 08:21:49;;;;;;;;;;;;;;;;;;5057959;28;20320;-59
2022/10/04 08:24:15;;;;;;;;;;;;;;;;;;5056869;28;19958;-59
2022/10/04 08:26:41;;;;;;;;;;;;;;;;;;5058959;28;20012;-59
2022/10/04 08:31:51;;;;;;;;;;;;;;;;;;5059189;28;19914;-59
2022/10/04 08:34:20;;;;;;;;;;;;;;;;;;5056262;28;20019;-59
2022/10/04 08:36:46;;;;;;;;;;;;;;;;;;5056458;28;19916;-59
2022/10/04 08:39:11;;;;;;;;;;;;;;;;;;5055830;28;20408;-59
2022/10/04 08:41:37;;;;;;;;;;;;;;;;;;5055310;28;19909;-59
2022/10/04 08:44:04;;;;;;;;;;;;;;;;;;5059465;28;19909;-59
2022/10/04 08:46:30;;;;;;;;;;;;;;;;;;5060648;28;20391;-59
2022/10/04 08:48:56;;;;;;;;;;;;;;;;;;5056733;28;20288;-60
2022/10/04 08:51:22;;;;;;;;;;;;;;;;;;5065115;28;19916;-59
2022/10/04 08:53:48;;;;;;;;;;;;;;;;;;5060178;28;19917;-59
2022/10/04 08:56:16;;;;;;;;;;;;;;;;;;5059179;28;19909;-60
2022/10/04 08:58:41;;;;;;;;;;;;;;;;;;5056755;28;19912;-60
2022/10/04 09:01:07;;;;;;;;;;;;;;;;;;5054863;28;20364;-59
2022/10/04 09:03:35;;;;;;;;;;;;;;;;;;5060503;28;20014;-59
2022/10/04 09:06:01;;;;;;;;;;;;;;;;;;5055682;28;19913;-60
2022/10/04 09:08:27;;;;;;;;;;;;;;;;;;5055199;28;20353;-59
2022/10/04 09:10:53;;;;;;;;;;;;;;;;;;5057929;28;19915;-60
2022/10/04 09:13:21;;;;;;;;;;;;;;;;;;5055033;28;19913;-59
2022/10/04 09:15:47;;;;;;;;;;;;;;;;;;5055212;28;20004;-60
2022/10/04 09:18:12;;;;;;;;;;;;;;;;;;5057353;28;19976;-60
2022/10/04 09:20:40;;;;;;;;;;;;;;;;;;5056418;28;20020;-60
2022/10/04 09:23:06;;;;;;;;;;;;;;;;;;5057708;28;19909;-60
2022/10/04 09:25:32;;;;;;;;;;;;;;;;;;5057317;28;19920;-60
2022/10/04 09:27:58;;;;;;;;;;;;;;;;;;5051280;28;20372;-60
2022/10/04 09:30:30;;;;;;;;;;;;;;;;;;5059337;28;19991;-60
2022/10/04 09:32:58;;;;;;;;;;;;;;;;;;5056713;28;20365;-60
2022/10/04 09:35:26;;;;;;;;;;;;;;;;;;5058158;28;20408;-60
2022/10/04 09:37:52;;;;;;;;;;;;;;;;;;5055518;28;19912;-60
2022/10/04 09:40:19;;;;;;;;;;;;;;;;;;5056432;28;19995;-59
2022/10/04 09:42:44;;;;;;;;;;;;;;;;;;5056155;28;20418;-60
2022/10/04 09:45:10;;;;;;;;;;;;;;;;;;5056088;28;19956;-59
2022/10/04 09:47:36;;;;;;;;;;;;;;;;;;5053151;28;20021;-60
2022/10/04 09:50:03;;;;;;;;;;;;;;;;;;5057127;28;19909;-60
2022/10/04 09:52:29;;;;;;;;;;;;;;;;;;5057061;28;19909;-59
2022/10/04 09:54:55;;;;;;;;;;;;;;;;;;5061525;28;19974;-60
2022/10/04 09:57:21;;;;;;;;;;;;;;;;;;5055324;28;19974;-60
2022/10/04 09:59:49;;;;;;;;;;;;;;;;;;5061941;28;19912;-60
2022/10/04 10:02:15;;;;;;;;;;;;;;;;;;5052248;28;19915;-60
2022/10/04 10:04:41;;;;;;;;;;;;;;;;;;5062262;28;20380;-59
2022/10/04 10:07:07;;;;;;;;;;;;;;;;;;5054648;28;19954;-60
2022/10/04 10:15:02;;;;;;;;;;;;;;;;;;5056298;28;20008;-60
2022/10/04 10:17:29;;;;;;;;;;;;;;;;;;5058011;28;19952;-60
2022/10/04 10:19:55;;;;;;;;;;;;;;;;;;5056190;28;20003;-59
2022/10/04 10:22:21;;;;;;;;;;;;;;;;;;5055665;28;20382;-60
2022/10/04 10:24:49;;;;;;;;;;;;;;;;;;5060240;28;19909;-61
2022/10/04 10:27:15;;;;;;;;;;;;;;;;;;5058199;28;19912;-60
2022/10/04 10:29:41;;;;;;;;;;;;;;;;;;5059237;28;20058;-60
2022/10/04 10:32:08;;;;;;;;;;;;;;;;;;5057731;28;19909;-59
2022/10/04 10:34:34;;;;;;;;;;;;;;;;;;5053971;28;19925;-60
2022/10/04 10:36:59;;;;;;;;;;;;;;;;;;5061293;28;19909;-60
2022/10/04 10:39:25;;;;;;;;;;;;;;;;;;5059566;28;20387;-60
2022/10/04 10:41:51;;;;;;;;;;;;;;;;;;5062863;28;19908;-61
2022/10/04 10:44:22;;;;;;;;;;;;;;;;;;5057809;28;19916;-60
2022/10/04 10:46:48;;;;;;;;;;;;;;;;;;5065113;28;20363;-60
2022/10/04 10:49:14;;;;;;;;;;;;;;;;;;5061662;28;19917;-60
2022/10/04 10:51:39;;;;;;;;;;;;;;;;;;5068755;28;19908;-60
2022/10/04 10:54:05;;;;;;;;;;;;;;;;;;5061641;28;20343;-60
2022/10/04 10:56:31;;;;;;;;;;;;;;;;;;5063474;28;20505;-59
2022/10/04 10:58:57;;;;;;;;;;;;;;;;;;5063713;28;19908;-60
2022/10/04 11:01:23;;;;;;;;;;;;;;;;;;5060820;28;19909;-59
2022/10/04 11:03:49;;;;;;;;;;;;;;;;;;5061593;28;20041;-60
2022/10/04 11:06:15;;;;;;;;;;;;;;;;;;5060746;28;19921;-60
2022/10/04 11:08:41;;;;;;;;;;;;;;;;;;5061915;28;20624;-60
2022/10/04 11:11:07;;;;;;;;;;;;;;;;;;5057359;28;19909;-60
2022/10/04 11:13:33;;;;;;;;;;;;;;;;;;5058452;28;19964;-60
2022/10/04 11:16:00;;;;;;;;;;;;;;;;;;5062011;28;19962;-59
2022/10/04 11:18:26;;;;;;;;;;;;;;;;;;5065397;28;19916;-60
2022/10/04 11:20:52;;;;;;;;;;;;;;;;;;5059199;28;20326;-60
2022/10/04 11:23:18;;;;;;;;;;;;;;;;;;5059425;28;19962;-60
2022/10/04 11:25:44;;;;;;;;;;;;;;;;;;5060003;28;20371;-60
2022/10/04 11:28:11;;;;;;;;;;;;;;;;;;5063453;28;20314;-60
2022/10/04 11:30:37;;;;;;;;;;;;;;;;;;5058357;28;19909;-60
2022/10/04 11:33:03;;;;;;;;;;;;;;;;;;5057415;28;19932;-60
2022/10/04 11:35:29;;;;;;;;;;;;;;;;;;5060317;28;19934;-60
2022/10/04 11:37:55;;;;;;;;;;;;;;;;;;5059458;28;19909;-60
2022/10/04 11:40:21;;;;;;;;;;;;;;;;;;5058975;28;20284;-60
2022/10/04 11:42:48;;;;;;;;;;;;;;;;;;5061240;28;19959;-60
2022/10/04 11:45:16;;;;;;;;;;;;;;;;;;5058876;28;19909;-61
2022/10/04 11:47:42;;;;;;;;;;;;;;;;;;5059995;28;19910;-60
2022/10/04 11:50:07;;;;;;;;;;;;;;;;;;5063065;28;19908;-61
2022/10/04 11:52:35;;;;;;;;;;;;;;;;;;5063014;28;19952;-60
2022/10/04 11:55:01;;;;;;;;;;;;;;;;;;5064279;28;19916;-61
2022/10/04 11:57:27;;;;;;;;;;;;;;;;;;5056561;28;19930;-60
2022/10/04 11:59:53;;;;;;;;;;;;;;;;;;5059349;28;20003;-60
2022/10/04 12:02:19;;;;;;;;;;;;;;;;;;5055886;28;19919;-60
2022/10/04 12:04:45;;;;;;;;;;;;;;;;;;5064411;28;19919;-61
2022/10/04 12:07:12;;;;;;;;;;;;;;;;;;5059460;28;19920;-60
2022/10/04 12:09:38;;;;;;;;;;;;;;;;;;5056646;28;19955;-60
2022/10/04 12:14:49;;;;;;;;;;;;;;;;;;5059191;28;19920;-60
2022/10/04 12:17:17;;;;;;;;;;;;;;;;;;5057984;28;19963;-60
2022/10/04 12:19:43;;;;;;;;;;;;;;;;;;5059434;28;19919;-60
2022/10/04 12:22:09;;;;;;;;;;;;;;;;;;5056781;28;19913;-61
2022/10/04 12:24:35;;;;;;;;;;;;;;;;;;5063935;28;19915;-60
2022/10/04 12:27:02;;;;;;;;;;;;;;;;;;5055228;28;19912;-60
2022/10/04 12:29:27;;;;;;;;;;;;;;;;;;5058057;28;19927;-60
2022/10/04 12:31:53;;;;;;;;;;;;;;;;;;5059131;28;19986;-60
2022/10/04 12:34:20;;;;;;;;;;;;;;;;;;5061674;28;19971;-60
2022/10/04 12:36:46;;;;;;;;;;;;;;;;;;5053964;28;19916;-60
2022/10/04 12:39:12;;;;;;;;;;;;;;;;;;5058923;28;20395;-60
2022/10/04 12:41:37;;;;;;;;;;;;;;;;;;5055749;28;19916;-61
2022/10/04 12:44:06;;;;;;;;;;;;;;;;;;5059045;28;20475;-60
2022/10/04 12:46:32;;;;;;;;;;;;;;;;;;5062986;28;19916;-59
2022/10/04 12:48:58;;;;;;;;;;;;;;;;;;5059768;28;19956;-60
2022/10/04 12:51:23;;;;;;;;;;;;;;;;;;5059457;28;19959;-60
2022/10/04 12:53:49;;;;;;;;;;;;;;;;;;5060307;28;20371;-59
2022/10/04 12:56:21;;;;;;;;;;;;;;;;;;5058410;28;19915;-60
2022/10/04 12:58:46;;;;;;;;;;;;;;;;;;5060734;28;19983;-60
2022/10/04 13:01:12;;;;;;;;;;;;;;;;;;5057052;28;20486;-60
2022/10/04 13:03:39;;;;;;;;;;;;;;;;;;5062568;28;19912;-60
2022/10/04 13:06:04;;;;;;;;;;;;;;;;;;5059465;28;20269;-61
2022/10/04 13:08:30;;;;;;;;;;;;;;;;;;5058834;28;20012;-60
2022/10/04 13:10:56;;;;;;;;;;;;;;;;;;5059508;28;19909;-60
2022/10/04 13:13:22;;;;;;;;;;;;;;;;;;5059042;28;19913;-60
2022/10/04 13:15:48;;;;;;;;;;;;;;;;;;5061772;28;19908;-60
2022/10/04 13:18:14;;;;;;;;;;;;;;;;;;5055063;28;19917;-60
2022/10/04 13:20:40;;;;;;;;;;;;;;;;;;5061860;28;19918;-61
2022/10/04 13:23:06;;;;;;;;;;;;;;;;;;5055101;28;19932;-60
2022/10/04 13:25:32;;;;;;;;;;;;;;;;;;5058003;28;19908;-60
2022/10/04 13:27:58;;;;;;;;;;;;;;;;;;5058902;28;19909;-60
2022/10/04 13:30:25;;;;;;;;;;;;;;;;;;5058807;28;19916;-60
2022/10/04 13:32:51;;;;;;;;;;;;;;;;;;5055913;28;20035;-60
2022/10/04 13:35:17;;;;;;;;;;;;;;;;;;5056909;28;20464;-59
2022/10/04 13:37:43;;;;;;;;;;;;;;;;;;5057940;28;20022;-60
2022/10/04 13:40:09;;;;;;;;;;;;;;;;;;5055104;28;19931;-60
2022/10/04 13:42:35;;;;;;;;;;;;;;;;;;5059646;28;20408;-60
2022/10/04 13:45:01;;;;;;;;;;;;;;;;;;5057642;28;19993;-60
2022/10/04 13:47:28;;;;;;;;;;;;;;;;;;5055470;28;19931;-60
2022/10/04 13:49:54;;;;;;;;;;;;;;;;;;5057889;28;20376;-61
2022/10/04 13:57:49;;;;;;;;;;;;;;;;;;5058701;28;19919;-61
2022/10/04 14:00:15;;;;;;;;;;;;;;;;;;5053921;28;20369;-59
2022/10/04 14:02:41;;;;;;;;;;;;;;;;;;5056626;28;19928;-60
2022/10/04 14:05:06;;;;;;;;;;;;;;;;;;5057610;28;20368;-60
2022/10/04 14:07:33;;;;;;;;;;;;;;;;;;5053336;28;19920;-60
2022/10/04 14:09:59;;;;;;;;;;;;;;;;;;5059335;28;19958;-60
2022/10/04 14:12:25;;;;;;;;;;;;;;;;;;5061207;28;20322;-60
2022/10/04 14:14:51;;;;;;;;;;;;;;;;;;5062313;28;19916;-60
2022/10/04 14:17:21;;;;;;;;;;;;;;;;;;5061424;28;19915;-60
2022/10/04 14:19:47;;;;;;;;;;;;;;;;;;5060649;28;19921;-61
2022/10/04 14:22:13;;;;;;;;;;;;;;;;;;5058887;28;20254;-60
2022/10/04 14:24:39;;;;;;;;;;;;;;;;;;5063027;28;19920;-60
2022/10/04 14:27:05;;;;;;;;;;;;;;;;;;5057819;28;19936;-60
2022/10/04 14:29:31;;;;;;;;;;;;;;;;;;5057604;28;19917;-60
2022/10/04 14:31:57;;;;;;;;;;;;;;;;;;5061073;28;19913;-60
2022/10/04 14:34:24;;;;;;;;;;;;;;;;;;5059917;28;20375;-60
2022/10/04 14:36:51;;;;;;;;;;;;;;;;;;5060355;28;19962;-60
2022/10/04 14:39:17;;;;;;;;;;;;;;;;;;5060848;28;19908;-60
2022/10/04 14:41:44;;;;;;;;;;;;;;;;;;5060839;28;19916;-60
2022/10/04 14:44:09;;;;;;;;;;;;;;;;;;5061975;28;19915;-60
2022/10/04 14:46:35;;;;;;;;;;;;;;;;;;5058390;28;20004;-60
2022/10/04 14:49:01;;;;;;;;;;;;;;;;;;5060987;28;19919;-61
2022/10/04 14:51:27;;;;;;;;;;;;;;;;;;5062153;28;20072;-60
2022/10/04 14:53:54;;;;;;;;;;;;;;;;;;5067603;28;19912;-60
2022/10/04 14:56:22;;;;;;;;;;;;;;;;;;5060843;28;19912;-60
2022/10/04 14:58:49;;;;;;;;;;;;;;;;;;5059656;28;19909;-60
2022/10/04 15:01:15;;;;;;;;;;;;;;;;;;5065014;28;19908;-60
2022/10/04 15:03:41;;;;;;;;;;;;;;;;;;5061461;28;19943;-60
2022/10/04 15:06:07;;;;;;;;;;;;;;;;;;5060276;28;19920;-60
2022/10/04 15:08:33;;;;;;;;;;;;;;;;;;5061380;28;20367;-60
2022/10/04 15:10:58;;;;;;;;;;;;;;;;;;5060646;28;19916;-60
2022/10/04 15:13:24;;;;;;;;;;;;;;;;;;5060185;28;20372;-60
2022/10/04 15:15:50;;;;;;;;;;;;;;;;;;5058192;28;19916;-61
2022/10/04 15:18:16;;;;;;;;;;;;;;;;;;5057685;28;20073;-60
2022/10/04 15:20:42;;;;;;;;;;;;;;;;;;5063348;28;19916;-61
2022/10/04 15:23:09;;;;;;;;;;;;;;;;;;5058806;28;19908;-60
2022/10/04 15:25:35;;;;;;;;;;;;;;;;;;5058830;28;19908;-61
2022/10/04 15:28:01;;;;;;;;;;;;;;;;;;5060040;28;19919;-60
2022/10/04 15:30:29;;;;;;;;;;;;;;;;;;5059424;28;20352;-60
2022/10/04 15:32:55;;;;;;;;;;;;;;;;;;5062514;28;19928;-60
2022/10/04 15:35:21;;;;;;;;;;;;;;;;;;5058842;28;20280;-61
2022/10/04 15:37:47;;;;;;;;;;;;;;;;;;5058821;28;19912;-60
2022/10/04 15:40:13;;;;;;;;;;;;;;;;;;5054522;28;19962;-60
2022/10/04 15:42:40;;;;;;;;;;;;;;;;;;5062760;28;20372;-60
2022/10/04 15:45:08;;;;;;;;;;;;;;;;;;5062111;28;19908;-60
2022/10/04 15:47:34;;;;;;;;;;;;;;;;;;5057317;28;19916;-60
2022/10/04 15:50:00;;;;;;;;;;;;;;;;;;5061321;28;19912;-61
2022/10/04 15:52:25;;;;;;;;;;;;;;;;;;5060292;28;19924;-61
2022/10/04 15:54:51;;;;;;;;;;;;;;;;;;5080310;28;20266;-60
2022/10/04 15:57:18;;;;;;;;;;;;;;;;;;5079407;28;19912;-60
2022/10/04 15:59:44;;;;;;;;;;;;;;;;;;5075218;28;19909;-60
2022/10/04 16:02:10;;;;;;;;;;;;;;;;;;5082170;28;19915;-60
2022/10/04 16:04:36;;;;;;;;;;;;;;;;;;5084959;28;19920;-60
2022/10/04 16:07:02;;;;;;;;;;;;;;;;;;5083833;28;19912;-60
2022/10/04 16:09:28;;;;;;;;;;;;;;;;;;5084097;28;19919;-60
2022/10/04 16:11:54;;;;;;;;;;;;;;;;;;5075970;28;19908;-60
2022/10/04 16:14:20;;;;;;;;;;;;;;;;;;5077132;28;20006;-61
2022/10/04 16:16:47;;;;;;;;;;;;;;;;;;5079401;28;20466;-61
2022/10/04 16:19:13;;;;;;;;;;;;;;;;;;5070677;28;19909;-60
2022/10/04 16:21:40;;;;;;;;;;;;;;;;;;5074296;28;20270;-60
2022/10/04 16:24:06;;;;;;;;;;;;;;;;;;5078810;28;20356;-60
2022/10/04 16:26:32;;;;;;;;;;;;;;;;;;5074378;28;19916;-60
2022/10/04 16:28:59;;;;;;;;;;;;;;;;;;5075537;28;19916;-60
2022/10/04 16:31:25;;;;;;;;;;;;;;;;;;5081144;28;20410;-60
2022/10/04 16:33:53;;;;;;;;;;;;;;;;;;5079022;28;19943;-61
2022/10/04 16:36:19;;;;;;;;;;;;;;;;;;5072529;28;19920;-60
2022/10/04 16:39:57;;;;;;;;;;;;;;;;;;5076820;28;19915;-61
2022/10/04 16:41:31;;;;;;;;;;;;;;;;;;5075971;28;19916;-60
2022/10/04 16:43:57;;;;;;;;;;;;;;;;;;5074412;28;19920;-60
2022/10/04 16:46:23;;;;;;;;;;;;;;;;;;5078322;28;19944;-60
2022/10/04 16:48:49;;;;;;;;;;;;;;;;;;5081127;28;19912;-60
2022/10/04 16:51:15;;;;;;;;;;;;;;;;;;5082930;28;19916;-60
2022/10/04 16:53:44;;;;;;;;;;;;;;;;;;5078447;28;19996;-60
2022/10/04 16:56:10;;;;;;;;;;;;;;;;;;5076990;28;20428;-60
2022/10/04 16:58:40;;;;;;;;;;;;;;;;;;5072743;28;19916;-60